Time;durP1;ratioP1;P1;durP2;ratioP2;P2;SDS_P1;SDS_P2;PMS_P1;PMS_P2;Temp;Humidity;BMP_temperature;BMP_pressure;BME280_temperature;BME280_humidity;BME280_pressure;Samples;Min_cycle;Max_cycle;Signal;HPM_P1;HPM_P2
2021/12/21 00:01:01;;;;;;;0.50;0.50;;;;;;;;;;1827920;78;26306;-41
2021/12/21 00:03:28;;;;;;;0.40;0.40;;;;;;;;;;1826413;78;26007;-43
2021/12/21 00:05:55;;;;;;;0.50;0.50;;;;;;;;;;1824007;78;26293;-41
2021/12/21 00:08:23;;;;;;;0.53;0.53;;;;;;;;;;1822964;77;26267;-41
2021/12/21 00:10:50;;;;;;;1.90;0.50;;;;;;;;;;1820225;78;26262;-41
2021/12/21 00:13:46;;;;;;;0.40;0.40;;;;;;;;;;1822545;78;26376;-42
2021/12/21 00:15:59;;;;;;;0.62;0.60;;;;;;;;;;1809409;78;26300;-41
2021/12/21 00:18:32;;;;;;;0.50;0.50;;;;;;;;;;1821346;78;26360;-40
2021/12/21 00:21:01;;;;;;;0.55;0.55;;;;;;;;;;1819382;78;26680;-40
2021/12/21 00:26:10;;;;;;;0.60;0.60;;;;;;;;;;1830557;77;26779;-40
2021/12/21 00:28:46;;;;;;;0.40;0.40;;;;;;;;;;1834797;78;26282;-40
2021/12/21 00:31:06;;;;;;;0.40;0.40;;;;;;;;;;1835403;78;26279;-42
2021/12/21 00:33:34;;;;;;;0.28;0.28;;;;;;;;;;1837102;78;26293;-41
2021/12/21 00:36:02;;;;;;;1.95;0.40;;;;;;;;;;1829232;78;26737;-41
2021/12/21 00:38:29;;;;;;;0.40;0.40;;;;;;;;;;1830864;78;26361;-41
2021/12/21 00:40:56;;;;;;;0.40;0.40;;;;;;;;;;1836032;78;26322;-40
2021/12/21 00:43:24;;;;;;;0.40;0.40;;;;;;;;;;1840367;78;26345;-42
2021/12/21 00:45:51;;;;;;;0.68;0.60;;;;;;;;;;1840737;78;26272;-41
2021/12/21 00:48:18;;;;;;;0.40;0.40;;;;;;;;;;1840495;78;26747;-41
2021/12/21 00:50:46;;;;;;;0.42;0.42;;;;;;;;;;1840785;78;26280;-41
2021/12/21 00:53:13;;;;;;;0.60;0.40;;;;;;;;;;1840688;77;26317;-41
2021/12/21 00:55:40;;;;;;;0.40;0.40;;;;;;;;;;1840794;78;26298;-41
2021/12/21 00:58:08;;;;;;;0.40;0.40;;;;;;;;;;1840185;78;26302;-41
2021/12/21 01:00:35;;;;;;;0.35;0.35;;;;;;;;;;1810375;79;26315;-41
2021/12/21 01:03:08;;;;;;;0.40;0.40;;;;;;;;;;1835170;78;26219;-41
2021/12/21 01:05:42;;;;;;;0.30;0.30;;;;;;;;;;1839543;77;26294;-41
2021/12/21 01:08:03;;;;;;;0.40;0.40;;;;;;;;;;1838712;78;26392;-41
2021/12/21 01:18:27;;;;;;;1.10;0.30;;;;;;;;;;1840675;77;26304;-41
2021/12/21 01:21:03;;;;;;;0.40;0.40;;;;;;;;;;1838652;77;26300;-42
2021/12/21 01:23:39;;;;;;;0.30;0.30;;;;;;;;;;1837430;78;26477;-42
2021/12/21 01:25:53;;;;;;;0.47;0.47;;;;;;;;;;1836319;78;26304;-41
2021/12/21 01:28:26;;;;;;;0.40;0.40;;;;;;;;;;1838159;78;26299;-41
2021/12/21 01:33:37;;;;;;;0.37;0.37;;;;;;;;;;1839126;78;26759;-43
2021/12/21 01:35:50;;;;;;;0.28;0.28;;;;;;;;;;1835615;78;26359;-41
2021/12/21 01:41:02;;;;;;;0.30;0.30;;;;;;;;;;1841925;76;26814;-41
2021/12/21 01:43:33;;;;;;;0.40;0.40;;;;;;;;;;1826961;78;26746;-41
2021/12/21 01:51:23;;;;;;;0.30;0.30;;;;;;;;;;1813152;78;26425;-42
2021/12/21 01:53:52;;;;;;;0.30;0.30;;;;;;;;;;1820817;77;26348;-42
2021/12/21 01:56:20;;;;;;;0.30;0.30;;;;;;;;;;1830778;78;26291;-43
2021/12/21 01:58:48;;;;;;;0.30;0.30;;;;;;;;;;1824707;78;26362;-41
2021/12/21 02:01:17;;;;;;;0.30;0.30;;;;;;;;;;1815020;77;27378;-42
2021/12/21 02:03:47;;;;;;;0.30;0.30;;;;;;;;;;1829513;78;26268;-43
2021/12/21 02:06:14;;;;;;;0.40;0.40;;;;;;;;;;1823209;78;26351;-41
2021/12/21 02:08:42;;;;;;;0.40;0.40;;;;;;;;;;1816290;79;26291;-42
2021/12/21 02:11:09;;;;;;;0.30;0.28;;;;;;;;;;1817036;77;26361;-42
2021/12/21 02:13:38;;;;;;;0.30;0.30;;;;;;;;;;1828301;78;26413;-41
2021/12/21 02:16:06;;;;;;;0.40;0.40;;;;;;;;;;1830321;78;26377;-42
2021/12/21 02:23:57;;;;;;;0.30;0.30;;;;;;;;;;1784887;78;26361;-41
2021/12/21 02:26:38;;;;;;;0.47;0.37;;;;;;;;;;1829722;78;26354;-42
2021/12/21 02:31:37;;;;;;;0.30;0.30;;;;;;;;;;1830406;78;26311;-41
2021/12/21 02:34:05;;;;;;;0.40;0.20;;;;;;;;;;1830473;78;26283;-41
2021/12/21 02:36:32;;;;;;;0.40;0.40;;;;;;;;;;1831060;78;26374;-41
2021/12/21 02:39:00;;;;;;;0.20;0.20;;;;;;;;;;1829961;78;26735;-41
2021/12/21 02:41:28;;;;;;;0.40;0.40;;;;;;;;;;1834659;78;26400;-43
2021/12/21 02:43:56;;;;;;;0.40;0.40;;;;;;;;;;1840755;78;26776;-42
2021/12/21 02:46:24;;;;;;;0.20;0.20;;;;;;;;;;1828195;77;26333;-43
2021/12/21 02:48:52;;;;;;;0.33;0.33;;;;;;;;;;1810587;79;26292;-41
2021/12/21 02:51:19;;;;;;;0.20;0.20;;;;;;;;;;1810631;79;26308;-41
2021/12/21 02:53:47;;;;;;;0.28;0.28;;;;;;;;;;1815956;78;26289;-43
2021/12/21 02:56:14;;;;;;;0.30;0.30;;;;;;;;;;1840712;78;26261;-43
2021/12/21 02:58:42;;;;;;;0.30;0.30;;;;;;;;;;1833751;78;26261;-42
2021/12/21 03:01:10;;;;;;;0.30;0.30;;;;;;;;;;1810317;79;26250;-41
2021/12/21 03:03:38;;;;;;;0.40;0.30;;;;;;;;;;1830107;78;26372;-41
2021/12/21 03:06:12;;;;;;;0.30;0.30;;;;;;;;;;1840695;78;26238;-42
2021/12/21 03:08:55;;;;;;;0.75;0.23;;;;;;;;;;1839564;78;26304;-43
2021/12/21 03:11:19;;;;;;;0.30;0.30;;;;;;;;;;1838454;78;26270;-41
2021/12/21 03:16:27;;;;;;;0.28;0.28;;;;;;;;;;1840804;78;26384;-42
2021/12/21 03:18:56;;;;;;;0.20;0.20;;;;;;;;;;1840827;78;26293;-41
2021/12/21 03:21:24;;;;;;;0.20;0.20;;;;;;;;;;1839974;78;27224;-42
2021/12/21 03:23:51;;;;;;;0.30;0.30;;;;;;;;;;1840108;78;26306;-41
2021/12/21 03:26:19;;;;;;;0.30;0.30;;;;;;;;;;1832301;76;26375;-41
2021/12/21 03:28:46;;;;;;;0.20;0.20;;;;;;;;;;1817620;78;26322;-41
2021/12/21 03:31:13;;;;;;;0.30;0.30;;;;;;;;;;1809612;79;27388;-42
2021/12/21 03:33:41;;;;;;;0.30;0.30;;;;;;;;;;1809595;79;26693;-42
2021/12/21 03:36:08;;;;;;;0.17;0.17;;;;;;;;;;1835420;78;26375;-41
2021/12/21 03:38:37;;;;;;;0.30;0.30;;;;;;;;;;1840020;78;26657;-41
2021/12/21 03:41:11;;;;;;;0.30;0.30;;;;;;;;;;1839002;78;26629;-42
2021/12/21 03:43:34;;;;;;;0.20;0.20;;;;;;;;;;1829848;78;26311;-41
2021/12/21 03:46:09;;;;;;;0.30;0.30;;;;;;;;;;1831128;78;26740;-42
2021/12/21 03:48:34;;;;;;;0.17;0.17;;;;;;;;;;1830248;78;26354;-43
2021/12/21 03:51:02;;;;;;;0.20;0.20;;;;;;;;;;1831204;78;26772;-41
2021/12/21 03:53:30;;;;;;;0.30;0.30;;;;;;;;;;1830782;78;26278;-41
2021/12/21 03:56:47;;;;;;;0.28;0.28;;;;;;;;;;1831103;78;26816;-41
2021/12/21 03:58:26;;;;;;;0.30;0.30;;;;;;;;;;1801477;78;26848;-41
2021/12/21 04:00:53;;;;;;;2.35;0.30;;;;;;;;;;1819891;78;26305;-41
2021/12/21 04:03:21;;;;;;;0.30;0.30;;;;;;;;;;1816141;78;26279;-43
2021/12/21 04:05:48;;;;;;;0.33;0.33;;;;;;;;;;1829522;77;26539;-43
2021/12/21 04:08:15;;;;;;;0.30;0.30;;;;;;;;;;1829179;77;26365;-42
2021/12/21 04:10:43;;;;;;;0.20;0.20;;;;;;;;;;1829144;78;26309;-41
2021/12/21 04:13:11;;;;;;;0.10;0.10;;;;;;;;;;1829145;78;26397;-42
2021/12/21 04:15:42;;;;;;;0.40;0.40;;;;;;;;;;1825392;77;26309;-41
2021/12/21 04:18:07;;;;;;;0.30;0.30;;;;;;;;;;1828247;77;26690;-41
2021/12/21 04:20:34;;;;;;;0.10;0.10;;;;;;;;;;1825205;78;26785;-42
2021/12/21 04:23:02;;;;;;;0.30;0.30;;;;;;;;;;1830504;78;26291;-41
2021/12/21 04:25:29;;;;;;;0.17;0.17;;;;;;;;;;1830598;77;26344;-41
2021/12/21 04:27:56;;;;;;;0.20;0.20;;;;;;;;;;1830888;78;26287;-41
2021/12/21 04:30:24;;;;;;;0.40;0.40;;;;;;;;;;1830575;78;26374;-41
2021/12/21 04:32:51;;;;;;;0.25;0.25;;;;;;;;;;1830369;78;26283;-41
2021/12/21 04:35:20;;;;;;;0.23;0.23;;;;;;;;;;1829403;78;26355;-42
2021/12/21 04:37:53;;;;;;;0.40;0.30;;;;;;;;;;1830975;78;26313;-41
2021/12/21 04:40:20;;;;;;;0.40;0.40;;;;;;;;;;1830100;78;26841;-42
2021/12/21 04:42:46;;;;;;;0.40;0.40;;;;;;;;;;1831024;78;26359;-41
2021/12/21 04:45:14;;;;;;;0.30;0.30;;;;;;;;;;1831062;78;26234;-41
2021/12/21 04:47:41;;;;;;;0.30;0.30;;;;;;;;;;1830983;78;27092;-42
2021/12/21 04:50:09;;;;;;;0.30;0.30;;;;;;;;;;1831037;78;26310;-41
2021/12/21 04:52:37;;;;;;;0.30;0.30;;;;;;;;;;1831072;78;26748;-44
2021/12/21 04:55:04;;;;;;;0.55;0.40;;;;;;;;;;1830921;78;26286;-42
2021/12/21 04:57:32;;;;;;;1.10;0.40;;;;;;;;;;1830878;78;26750;-40
2021/12/21 04:59:59;;;;;;;0.40;0.40;;;;;;;;;;1830780;78;26766;-42
2021/12/21 05:02:26;;;;;;;0.40;0.40;;;;;;;;;;1829522;77;26707;-43
2021/12/21 05:04:53;;;;;;;0.40;0.40;;;;;;;;;;1830286;78;27209;-42
2021/12/21 05:07:24;;;;;;;0.72;0.40;;;;;;;;;;1830157;78;26563;-49
2021/12/21 05:09:56;;;;;;;0.20;0.20;;;;;;;;;;1829963;78;26811;-42
2021/12/21 05:12:19;;;;;;;0.30;0.30;;;;;;;;;;1828948;78;26881;-42
2021/12/21 05:14:46;;;;;;;0.30;0.30;;;;;;;;;;1830020;78;26252;-41
2021/12/21 05:17:13;;;;;;;1.10;0.50;;;;;;;;;;1830381;78;26325;-41
2021/12/21 05:19:41;;;;;;;0.30;0.30;;;;;;;;;;1819158;78;26258;-41
2021/12/21 05:22:08;;;;;;;0.40;0.40;;;;;;;;;;1825252;78;26274;-41
2021/12/21 05:24:35;;;;;;;0.40;0.40;;;;;;;;;;1823773;78;26345;-42
2021/12/21 05:27:03;;;;;;;0.40;0.40;;;;;;;;;;1827428;78;26282;-43
2021/12/21 05:29:31;;;;;;;0.30;0.30;;;;;;;;;;1824935;78;27423;-41
2021/12/21 05:32:03;;;;;;;0.65;0.40;;;;;;;;;;1821792;78;26322;-42
2021/12/21 05:34:28;;;;;;;0.85;0.40;;;;;;;;;;1826813;78;26358;-40
2021/12/21 05:36:56;;;;;;;0.42;0.42;;;;;;;;;;1821999;78;26374;-41
2021/12/21 05:39:27;;;;;;;1.95;0.47;;;;;;;;;;1824953;78;26376;-41
2021/12/21 05:41:56;;;;;;;1.47;0.33;;;;;;;;;;1827839;78;26294;-41
2021/12/21 05:44:23;;;;;;;2.02;0.50;;;;;;;;;;1828821;78;26699;-42
2021/12/21 05:46:51;;;;;;;2.55;0.70;;;;;;;;;;1838505;78;26344;-44
2021/12/21 05:49:19;;;;;;;0.53;0.53;;;;;;;;;;1831495;78;26368;-41
2021/12/21 05:51:47;;;;;;;0.98;0.60;;;;;;;;;;1838235;78;26278;-43
2021/12/21 05:54:15;;;;;;;0.50;0.50;;;;;;;;;;1837349;78;26765;-41
2021/12/21 05:56:42;;;;;;;1.55;0.75;;;;;;;;;;1836944;78;26345;-41
2021/12/21 05:59:09;;;;;;;0.70;0.70;;;;;;;;;;1831043;78;26722;-41
2021/12/21 06:01:37;;;;;;;1.47;0.70;;;;;;;;;;1831582;78;26297;-41
2021/12/21 06:04:05;;;;;;;1.07;0.80;;;;;;;;;;1833200;76;26985;-41
2021/12/21 06:06:33;;;;;;;0.82;0.70;;;;;;;;;;1834841;78;26262;-41
2021/12/21 06:09:05;;;;;;;1.12;0.70;;;;;;;;;;1836012;78;26251;-41
2021/12/21 06:11:31;;;;;;;1.55;0.60;;;;;;;;;;1830668;76;26376;-42
2021/12/21 06:27:03;;;;;;;1.55;0.75;;;;;;;;;;1834865;78;26301;-42
2021/12/21 06:29:30;;;;;;;0.70;0.60;;;;;;;;;;1834486;78;26670;-42
2021/12/21 06:31:58;;;;;;;0.50;0.50;;;;;;;;;;1838581;78;26276;-43
2021/12/21 06:34:25;;;;;;;0.75;0.50;;;;;;;;;;1838636;78;26345;-41
2021/12/21 06:36:53;;;;;;;1.57;0.50;;;;;;;;;;1835438;78;26294;-41
2021/12/21 06:39:20;;;;;;;0.42;0.42;;;;;;;;;;1838656;78;26219;-41
2021/12/21 06:41:48;;;;;;;0.60;0.37;;;;;;;;;;1838469;78;26227;-42
2021/12/21 06:44:16;;;;;;;2.17;0.53;;;;;;;;;;1828971;78;26323;-42
2021/12/21 06:47:04;;;;;;;0.50;0.50;;;;;;;;;;1828800;78;26310;-43
2021/12/21 06:52:00;;;;;;;0.40;0.40;;;;;;;;;;1827430;78;26356;-41
2021/12/21 06:54:28;;;;;;;0.57;0.50;;;;;;;;;;1830382;78;26298;-41
2021/12/21 06:56:56;;;;;;;0.88;0.50;;;;;;;;;;1828872;78;26301;-42
2021/12/21 06:59:23;;;;;;;2.25;0.60;;;;;;;;;;1824576;78;25597;-41
2021/12/21 07:01:51;;;;;;;0.40;0.40;;;;;;;;;;1830545;78;26310;-42
2021/12/21 07:04:18;;;;;;;2.62;0.42;;;;;;;;;;1829906;77;26733;-42
2021/12/21 07:06:46;;;;;;;1.85;0.55;;;;;;;;;;1829356;78;26274;-41
2021/12/21 07:09:23;;;;;;;1.37;0.40;;;;;;;;;;1830787;78;26309;-42
2021/12/21 07:11:53;;;;;;;0.95;0.55;;;;;;;;;;1829578;78;26467;-44
2021/12/21 07:19:45;;;;;;;4.92;0.68;;;;;;;;;;1830963;78;26341;-41
2021/12/21 07:22:13;;;;;;;2.45;0.50;;;;;;;;;;1831032;78;26261;-42
2021/12/21 07:24:41;;;;;;;2.72;0.50;;;;;;;;;;1827359;78;26352;-43
2021/12/21 07:27:09;;;;;;;1.45;0.40;;;;;;;;;;1802285;78;26307;-43
2021/12/21 07:29:36;;;;;;;0.53;0.50;;;;;;;;;;1837237;78;25885;-42
2021/12/21 07:32:04;;;;;;;3.00;0.70;;;;;;;;;;1825283;77;27116;-43
2021/12/21 07:34:31;;;;;;;0.42;0.42;;;;;;;;;;1817249;77;26368;-43
2021/12/21 07:36:58;;;;;;;1.65;0.60;;;;;;;;;;1824394;77;26757;-42
2021/12/21 07:39:25;;;;;;;0.50;0.50;;;;;;;;;;1827080;77;26765;-41
2021/12/21 07:41:53;;;;;;;4.12;1.12;;;;;;;;;;1828068;77;26359;-42
2021/12/21 07:44:20;;;;;;;0.60;0.60;;;;;;;;;;1827990;76;26339;-43
2021/12/21 07:46:48;;;;;;;2.77;0.70;;;;;;;;;;1835556;76;26302;-42
2021/12/21 07:49:15;;;;;;;3.30;0.80;;;;;;;;;;1819577;78;28331;-39
2021/12/21 07:51:43;;;;;;;0.70;0.60;;;;;;;;;;1828867;77;26387;-41
2021/12/21 07:54:10;;;;;;;2.35;0.60;;;;;;;;;;1832413;78;26282;-43
2021/12/21 07:56:37;;;;;;;1.70;0.55;;;;;;;;;;1836469;78;26408;-43
2021/12/21 07:59:05;;;;;;;5.30;0.60;;;;;;;;;;1830325;78;26356;-43
2021/12/21 08:01:32;;;;;;;1.60;0.45;;;;;;;;;;1830714;78;26353;-42
2021/12/21 08:04:00;;;;;;;2.45;0.60;;;;;;;;;;1829738;76;26338;-41
2021/12/21 08:06:30;;;;;;;2.50;0.78;;;;;;;;;;1833738;76;27224;-41
2021/12/21 08:08:57;;;;;;;0.95;0.65;;;;;;;;;;1829370;78;26301;-40
2021/12/21 08:14:04;;;;;;;3.17;0.53;;;;;;;;;;1835670;78;26395;-41
2021/12/21 08:16:32;;;;;;;3.35;0.62;;;;;;;;;;1827151;78;26363;-38
2021/12/21 08:18:59;;;;;;;1.45;0.45;;;;;;;;;;1833296;78;26302;-42
2021/12/21 08:21:27;;;;;;;0.30;0.30;;;;;;;;;;1835658;78;26356;-39
2021/12/21 08:23:55;;;;;;;0.60;0.60;;;;;;;;;;1834742;78;26282;-42
2021/12/21 08:26:22;;;;;;;1.10;0.60;;;;;;;;;;1833700;78;26364;-41
2021/12/21 08:28:49;;;;;;;0.72;0.55;;;;;;;;;;1835602;78;26341;-40
2021/12/21 08:31:17;;;;;;;0.40;0.40;;;;;;;;;;1835929;78;26292;-45
2021/12/21 08:33:44;;;;;;;0.50;0.50;;;;;;;;;;1831749;78;27713;-41
2021/12/21 08:36:11;;;;;;;0.40;0.40;;;;;;;;;;1837453;78;26291;-45
2021/12/21 08:38:42;;;;;;;1.42;0.50;;;;;;;;;;1828967;76;26310;-43
2021/12/21 08:41:08;;;;;;;0.68;0.47;;;;;;;;;;1832888;78;26328;-37
2021/12/21 08:43:36;;;;;;;0.60;0.60;;;;;;;;;;1837285;78;26286;-41
2021/12/21 08:46:06;;;;;;;0.72;0.70;;;;;;;;;;1827050;78;26290;-41
2021/12/21 08:48:33;;;;;;;0.45;0.45;;;;;;;;;;1835583;77;26392;-41
2021/12/21 08:51:01;;;;;;;0.95;0.50;;;;;;;;;;1837451;78;26289;-44
2021/12/21 08:53:28;;;;;;;1.87;0.40;;;;;;;;;;1836150;78;26388;-44
2021/12/21 08:55:56;;;;;;;0.40;0.40;;;;;;;;;;1835670;78;26097;-41
2021/12/21 08:58:24;;;;;;;0.50;0.50;;;;;;;;;;1831973;77;26376;-40
2021/12/21 09:00:51;;;;;;;2.00;0.60;;;;;;;;;;1810026;78;28817;-44
2021/12/21 09:03:20;;;;;;;1.42;0.55;;;;;;;;;;1838119;78;26294;-44
2021/12/21 09:05:49;;;;;;;0.98;0.47;;;;;;;;;;1838330;78;26322;-42
2021/12/21 09:08:16;;;;;;;1.00;0.57;;;;;;;;;;1837458;76;26264;-42
2021/12/21 09:10:43;;;;;;;0.50;0.50;;;;;;;;;;1838361;78;26367;-45
2021/12/21 09:13:12;;;;;;;7.37;0.50;;;;;;;;;;1837693;78;26258;-41
2021/12/21 09:15:39;;;;;;;2.75;0.50;;;;;;;;;;1832747;78;26345;-42
2021/12/21 09:18:07;;;;;;;0.65;0.50;;;;;;;;;;1837662;78;26262;-44
2021/12/21 09:20:35;;;;;;;0.85;0.65;;;;;;;;;;1826330;78;26266;-41
2021/12/21 09:23:03;;;;;;;0.57;0.50;;;;;;;;;;1837636;78;27274;-44
2021/12/21 09:25:30;;;;;;;1.37;0.53;;;;;;;;;;1833746;77;26302;-44
2021/12/21 09:27:58;;;;;;;2.83;0.50;;;;;;;;;;1825039;78;27431;-44
2021/12/21 09:30:28;;;;;;;0.72;0.50;;;;;;;;;;1837572;78;26390;-40
2021/12/21 09:32:55;;;;;;;7.50;0.80;;;;;;;;;;1835659;78;26873;-44
2021/12/21 09:35:22;;;;;;;4.20;0.70;;;;;;;;;;1823418;78;28361;-31
2021/12/21 09:37:50;;;;;;;1.40;0.50;;;;;;;;;;1835618;76;26411;-31
2021/12/21 09:40:19;;;;;;;0.50;0.50;;;;;;;;;;1832017;78;26380;-39
2021/12/21 09:42:47;;;;;;;0.75;0.53;;;;;;;;;;1837066;77;26298;-39
2021/12/21 09:45:15;;;;;;;2.95;0.42;;;;;;;;;;1831682;78;26648;-42
2021/12/21 09:47:42;;;;;;;0.85;0.53;;;;;;;;;;1828325;78;26274;-39
2021/12/21 09:50:12;;;;;;;1.15;0.50;;;;;;;;;;1821696;77;26388;-40
2021/12/21 09:52:39;;;;;;;0.60;0.50;;;;;;;;;;1825758;78;26635;-40
2021/12/21 09:55:08;;;;;;;0.40;0.40;;;;;;;;;;1819444;78;26254;-37
2021/12/21 09:57:36;;;;;;;0.75;0.40;;;;;;;;;;1828182;78;26768;-38
2021/12/21 10:00:05;;;;;;;0.53;0.53;;;;;;;;;;1814782;78;28393;-42
2021/12/21 10:02:34;;;;;;;0.78;0.68;;;;;;;;;;1828492;78;26264;-40
2021/12/21 10:05:02;;;;;;;5.00;0.60;;;;;;;;;;1809635;77;26650;-39
2021/12/21 10:07:30;;;;;;;2.17;0.60;;;;;;;;;;1812710;78;28342;-40
2021/12/21 10:10:08;;;;;;;1.98;0.50;;;;;;;;;;1823761;77;26299;-44
2021/12/21 10:12:38;;;;;;;0.33;0.33;;;;;;;;;;1821998;77;26656;-43
2021/12/21 10:15:10;;;;;;;3.80;0.60;;;;;;;;;;1820379;77;26318;-38
2021/12/21 10:17:38;;;;;;;3.75;0.53;;;;;;;;;;1826189;77;26274;-40
2021/12/21 10:20:09;;;;;;;3.27;0.53;;;;;;;;;;1827603;77;26329;-43
2021/12/21 10:22:38;;;;;;;0.50;0.50;;;;;;;;;;1828505;77;27383;-43
2021/12/21 10:25:07;;;;;;;0.50;0.50;;;;;;;;;;1828674;77;26662;-44
2021/12/21 10:27:36;;;;;;;0.50;0.50;;;;;;;;;;1828297;77;26808;-42
2021/12/21 10:30:04;;;;;;;0.55;0.55;;;;;;;;;;1821660;78;27417;-41
2021/12/21 10:32:32;;;;;;;3.10;0.68;;;;;;;;;;1828115;78;26382;-39
2021/12/21 10:35:01;;;;;;;4.15;0.85;;;;;;;;;;1828445;78;26347;-39
2021/12/21 10:37:30;;;;;;;0.42;0.42;;;;;;;;;;1826924;77;26785;-40
2021/12/21 10:40:04;;;;;;;0.50;0.50;;;;;;;;;;1824522;77;26750;-37
2021/12/21 10:42:32;;;;;;;1.20;0.62;;;;;;;;;;1824523;77;26369;-41
2021/12/21 10:45:01;;;;;;;0.35;0.35;;;;;;;;;;1824645;77;26278;-39
2021/12/21 10:47:29;;;;;;;0.95;0.45;;;;;;;;;;1817052;77;26279;-39
2021/12/21 10:49:56;;;;;;;1.75;0.50;;;;;;;;;;1823344;77;26399;-41
2021/12/21 10:52:24;;;;;;;1.95;0.50;;;;;;;;;;1824003;77;26327;-39
2021/12/21 10:54:51;;;;;;;1.27;0.60;;;;;;;;;;1818678;77;26287;-39
2021/12/21 10:57:20;;;;;;;0.68;0.50;;;;;;;;;;1818660;77;26385;-39
2021/12/21 10:59:49;;;;;;;4.75;0.50;;;;;;;;;;1820588;77;26299;-39
2021/12/21 11:02:18;;;;;;;0.50;0.50;;;;;;;;;;1821853;76;26275;-40
2021/12/21 11:04:48;;;;;;;0.50;0.40;;;;;;;;;;1819760;77;27303;-41
2021/12/21 11:07:37;;;;;;;0.33;0.33;;;;;;;;;;1816712;77;26750;-41
2021/12/21 11:10:09;;;;;;;0.30;0.30;;;;;;;;;;1821751;77;26886;-41
2021/12/21 11:12:33;;;;;;;0.40;0.40;;;;;;;;;;1820582;77;26481;-44
2021/12/21 11:15:01;;;;;;;0.47;0.47;;;;;;;;;;1818082;77;26325;-41
2021/12/21 11:17:29;;;;;;;0.80;0.50;;;;;;;;;;1822153;77;26347;-41
2021/12/21 11:19:56;;;;;;;1.10;0.60;;;;;;;;;;1827680;77;26901;-42
2021/12/21 11:22:24;;;;;;;0.75;0.60;;;;;;;;;;1833050;77;26715;-41
2021/12/21 11:24:53;;;;;;;0.62;0.50;;;;;;;;;;1825458;77;26958;-42
2021/12/21 11:27:22;;;;;;;0.50;0.50;;;;;;;;;;1819440;78;26335;-42
2021/12/21 11:29:51;;;;;;;0.68;0.60;;;;;;;;;;1824672;77;24144;-41
2021/12/21 11:32:18;;;;;;;0.40;0.40;;;;;;;;;;1830294;77;26271;-45
2021/12/21 11:37:20;;;;;;;0.83;0.50;;;;;;;;;;1806709;77;28854;-40
2021/12/21 11:37:30;;;;;;;0.70;0.70;;;;;;;;;;1810815;78;28410;-40
2021/12/21 11:39:57;;;;;;;13.00;0.80;;;;;;;;;;1828701;78;26392;-36
2021/12/21 11:42:35;;;;;;;1.35;0.70;;;;;;;;;;1818401;78;28276;-44
2021/12/21 11:45:04;;;;;;;1.47;0.80;;;;;;;;;;1828493;78;26329;-38
2021/12/21 11:47:33;;;;;;;2.30;0.70;;;;;;;;;;1824231;78;27242;-40
2021/12/21 11:50:02;;;;;;;3.10;0.60;;;;;;;;;;1825358;77;26278;-39
2021/12/21 11:52:29;;;;;;;1.60;0.80;;;;;;;;;;1824379;78;26302;-39
2021/12/21 11:54:59;;;;;;;0.60;0.60;;;;;;;;;;1830071;78;26563;-39
2021/12/21 11:57:37;;;;;;;1.75;0.60;;;;;;;;;;1831052;78;26383;-40
2021/12/21 12:00:06;;;;;;;1.57;0.50;;;;;;;;;;1828913;77;26278;-39
2021/12/21 12:02:34;;;;;;;4.12;0.72;;;;;;;;;;1829182;77;26286;-41
2021/12/21 12:05:01;;;;;;;2.92;0.60;;;;;;;;;;1835127;77;26291;-39
2021/12/21 12:07:28;;;;;;;2.20;0.68;;;;;;;;;;1829568;78;26729;-37
2021/12/21 12:10:03;;;;;;;2.12;0.60;;;;;;;;;;1832469;77;26704;-45
2021/12/21 12:12:31;;;;;;;0.68;0.68;;;;;;;;;;1829777;78;26291;-43
2021/12/21 12:15:02;;;;;;;0.72;0.60;;;;;;;;;;1828523;77;26408;-42
2021/12/21 12:17:30;;;;;;;0.95;0.60;;;;;;;;;;1827972;78;26282;-45
2021/12/21 12:20:05;;;;;;;0.65;0.50;;;;;;;;;;1827935;78;26707;-44
2021/12/21 12:22:38;;;;;;;2.55;0.60;;;;;;;;;;1826484;78;26561;-45
2021/12/21 12:25:08;;;;;;;0.50;0.50;;;;;;;;;;1828744;78;26857;-44
2021/12/21 12:27:36;;;;;;;0.45;0.45;;;;;;;;;;1822360;78;26723;-45
2021/12/21 12:30:11;;;;;;;0.60;0.60;;;;;;;;;;1827257;78;26278;-41
2021/12/21 12:32:43;;;;;;;0.70;0.70;;;;;;;;;;1828968;78;26738;-41
2021/12/21 12:35:12;;;;;;;0.57;0.57;;;;;;;;;;1809992;78;39025;-39
2021/12/21 12:37:58;;;;;;;0.78;0.60;;;;;;;;;;1830840;78;26722;-37
2021/12/21 12:40:27;;;;;;;0.50;0.50;;;;;;;;;;1819865;78;26219;-41
2021/12/21 12:42:59;;;;;;;1.27;0.60;;;;;;;;;;1816220;78;27375;-40
2021/12/21 12:45:28;;;;;;;0.50;0.50;;;;;;;;;;1829302;78;26239;-41
2021/12/21 12:47:57;;;;;;;0.60;0.60;;;;;;;;;;1829010;78;26333;-41
2021/12/21 12:50:26;;;;;;;0.60;0.60;;;;;;;;;;1800867;78;26389;-44
2021/12/21 12:52:55;;;;;;;0.78;0.53;;;;;;;;;;1821130;78;26721;-43
2021/12/21 12:55:24;;;;;;;0.68;0.68;;;;;;;;;;1826064;78;26634;-48
2021/12/21 12:57:53;;;;;;;0.60;0.60;;;;;;;;;;1832703;78;26658;-47
2021/12/21 13:00:22;;;;;;;0.50;0.50;;;;;;;;;;1827881;78;26344;-48
2021/12/21 13:02:53;;;;;;;0.50;0.50;;;;;;;;;;1829940;77;26295;-55
2021/12/21 13:05:22;;;;;;;0.55;0.55;;;;;;;;;;1826320;77;26262;-40
2021/12/21 13:07:49;;;;;;;1.82;0.60;;;;;;;;;;1830600;78;26286;-39
2021/12/21 13:10:16;;;;;;;0.60;0.60;;;;;;;;;;1830359;78;26247;-35
2021/12/21 13:12:44;;;;;;;0.60;0.60;;;;;;;;;;1829569;77;26340;-36
2021/12/21 13:15:11;;;;;;;0.85;0.60;;;;;;;;;;1830425;78;26287;-37
2021/12/21 13:17:43;;;;;;;0.72;0.60;;;;;;;;;;1830499;78;26246;-37
2021/12/21 13:20:08;;;;;;;0.68;0.60;;;;;;;;;;1823780;78;26285;-40
2021/12/21 13:22:35;;;;;;;0.50;0.50;;;;;;;;;;1830082;78;26769;-40
2021/12/21 13:25:03;;;;;;;0.68;0.68;;;;;;;;;;1829429;78;26294;-40
2021/12/21 13:27:31;;;;;;;0.60;0.60;;;;;;;;;;1829750;78;26407;-40
2021/12/21 13:30:01;;;;;;;0.50;0.50;;;;;;;;;;1807368;78;26840;-40
2021/12/21 13:32:30;;;;;;;0.50;0.50;;;;;;;;;;1817382;78;26351;-39
2021/12/21 13:34:58;;;;;;;0.50;0.50;;;;;;;;;;1830497;78;26340;-41
2021/12/21 13:37:27;;;;;;;0.75;0.75;;;;;;;;;;1830474;78;26766;-51
2021/12/21 13:39:57;;;;;;;1.07;0.50;;;;;;;;;;1827222;77;26242;-45
2021/12/21 13:42:24;;;;;;;0.50;0.50;;;;;;;;;;1826897;78;26377;-47
2021/12/21 13:44:53;;;;;;;0.57;0.57;;;;;;;;;;1818583;78;26277;-40
2021/12/21 13:47:31;;;;;;;0.60;0.60;;;;;;;;;;1826511;78;26396;-40
2021/12/21 13:50:03;;;;;;;0.50;0.50;;;;;;;;;;1828503;78;26344;-42
2021/12/21 13:52:32;;;;;;;0.70;0.70;;;;;;;;;;1828171;78;26321;-41
2021/12/21 13:55:01;;;;;;;0.40;0.40;;;;;;;;;;1828036;78;26250;-41
2021/12/21 13:57:29;;;;;;;0.60;0.60;;;;;;;;;;1828635;78;26255;-41
2021/12/21 13:59:58;;;;;;;0.50;0.50;;;;;;;;;;1826879;77;26247;-41
2021/12/21 14:02:34;;;;;;;0.85;0.40;;;;;;;;;;1826365;78;26810;-40
2021/12/21 14:05:01;;;;;;;6.95;1.02;;;;;;;;;;1822276;78;26372;-45
2021/12/21 14:07:29;;;;;;;2.85;0.42;;;;;;;;;;1823720;77;26406;-42
2021/12/21 14:10:07;;;;;;;0.42;0.42;;;;;;;;;;1828196;78;26406;-47
2021/12/21 14:12:35;;;;;;;0.65;0.65;;;;;;;;;;1825679;77;26302;-42
2021/12/21 14:15:03;;;;;;;1.92;0.45;;;;;;;;;;1828668;78;26281;-40
2021/12/21 14:17:31;;;;;;;0.40;0.40;;;;;;;;;;1827958;78;26265;-41
2021/12/21 14:19:59;;;;;;;0.50;0.50;;;;;;;;;;1822759;78;26710;-39
2021/12/21 14:22:26;;;;;;;0.70;0.70;;;;;;;;;;1828305;78;26877;-38
2021/12/21 14:24:54;;;;;;;1.22;0.50;;;;;;;;;;1830582;78;26281;-34
2021/12/21 14:27:23;;;;;;;0.40;0.40;;;;;;;;;;1827871;78;26718;-43
2021/12/21 14:29:50;;;;;;;0.40;0.40;;;;;;;;;;1814506;77;28297;-43
2021/12/21 14:32:26;;;;;;;0.50;0.50;;;;;;;;;;1826570;78;28374;-36
2021/12/21 14:34:49;;;;;;;3.10;0.60;;;;;;;;;;1813216;78;28281;-42
2021/12/21 14:37:18;;;;;;;4.70;0.65;;;;;;;;;;1829707;78;26294;-40
2021/12/21 14:39:50;;;;;;;2.05;0.60;;;;;;;;;;1828982;77;26282;-46
2021/12/21 14:42:16;;;;;;;3.08;0.72;;;;;;;;;;1812751;77;28342;-39
2021/12/21 14:44:45;;;;;;;1.02;0.60;;;;;;;;;;1828507;78;26341;-40
2021/12/21 14:47:13;;;;;;;1.85;0.68;;;;;;;;;;1830265;78;26365;-37
2021/12/21 14:49:50;;;;;;;1.77;0.68;;;;;;;;;;1829118;77;26333;-37
2021/12/21 14:52:22;;;;;;;1.55;0.70;;;;;;;;;;1821977;78;26492;-42
2021/12/21 14:54:53;;;;;;;0.90;0.60;;;;;;;;;;1817409;78;28436;-41
2021/12/21 14:57:19;;;;;;;1.62;0.60;;;;;;;;;;1826890;78;26798;-44
2021/12/21 14:59:53;;;;;;;3.40;0.55;;;;;;;;;;1815849;78;26296;-45
2021/12/21 15:05:03;;;;;;;0.93;0.60;;;;;;;;;;1811401;78;26405;-41
2021/12/21 15:07:30;;;;;;;1.15;0.50;;;;;;;;;;1829241;78;26287;-38
2021/12/21 15:09:59;;;;;;;3.22;0.60;;;;;;;;;;1823553;77;26305;-39
2021/12/21 15:12:27;;;;;;;0.57;0.45;;;;;;;;;;1822430;78;26867;-39
2021/12/21 15:14:55;;;;;;;3.55;0.47;;;;;;;;;;1818421;78;26306;-41
2021/12/21 15:17:22;;;;;;;0.40;0.40;;;;;;;;;;1831548;78;26742;-38
2021/12/21 15:19:50;;;;;;;0.85;0.50;;;;;;;;;;1829865;78;26313;-37
2021/12/21 15:22:18;;;;;;;0.62;0.62;;;;;;;;;;1827770;78;26678;-37
2021/12/21 15:24:45;;;;;;;0.62;0.62;;;;;;;;;;1828669;78;26284;-38
2021/12/21 15:27:13;;;;;;;0.60;0.60;;;;;;;;;;1830084;78;26733;-36
2021/12/21 15:29:41;;;;;;;0.50;0.50;;;;;;;;;;1816846;77;26383;-37
2021/12/21 15:32:14;;;;;;;0.60;0.60;;;;;;;;;;1824551;78;26769;-39
2021/12/21 15:34:37;;;;;;;0.40;0.40;;;;;;;;;;1818971;78;25337;-36
2021/12/21 15:37:05;;;;;;;0.50;0.50;;;;;;;;;;1817408;78;26274;-37
2021/12/21 15:39:32;;;;;;;0.57;0.57;;;;;;;;;;1829824;78;26353;-37
2021/12/21 15:42:11;;;;;;;0.50;0.50;;;;;;;;;;1829167;78;26709;-36
2021/12/21 15:44:31;;;;;;;0.57;0.47;;;;;;;;;;1826112;77;26286;-36
2021/12/21 15:46:59;;;;;;;0.80;0.60;;;;;;;;;;1828031;78;26627;-38
2021/12/21 15:49:26;;;;;;;0.40;0.40;;;;;;;;;;1824559;78;26372;-37